Friday, August 22, 2014, 1:52 AM EDT

KMDT, Harrisburg International Airport

Location: Middletown, PA, United States Lat: 40.2
Local Time: 1:52 AM EDT ( 5:52 GMT) Lon: -76.767
Time Zone: US/Eastern Elev: 308 ft

Show me the last for .
Show Decoded

2014-08-22 00:56 METAR KMDT 220456Z 00000KT 6SM BR FEW006 SCT065 SCT250 21/19 A2998 =
2014-08-21 23:56 METAR KMDT 220356Z 00000KT 6SM BR FEW006 SCT070 SCT250 21/19 A2999 RMK AO2
                 SLP154 T02110194 =
2014-08-21 22:56 METAR KMDT 220256Z 00000KT 7SM FEW007 SCT120 BKN250 21/19 A3000 RMK AO2 SLP156
                 T02110194 53006 =
2014-08-21 22:13 METAR KMDT 220213Z 36003KT 5SM BR FEW004 SCT120 BKN250 21/20 A2999 RMK AO2
                 T02110200 =
2014-08-21 21:56 METAR KMDT 220156Z 00000KT 8SM FEW070 SCT120 BKN250 22/20 A2999 =
2014-08-21 20:56 METAR KMDT 220056Z 00000KT 9SM FEW050 SCT120 BKN250 22/20 A2998 =
2014-08-21 19:56 METAR KMDT 212356Z 35005KT 9SM FEW050 BKN120 OVC250 22/21 A2998 =
2014-08-21 18:56 METAR KMDT 212256Z 26004KT 8SM FEW050 BKN100 BKN140 OVC250 23/21 A2998 RMK AO2
                 RAE11B15E49 TSE11 SLP151 TS DSPTD CB DSNT SW MOV SE P0000 T02280211 =
2014-08-21 18:13 METAR KMDT 212213Z 28004KT 8SM SCT045 BKN080 BKN120 OVC160 24/22 A2999 RMK AO2
                 RAE11 TSE11 TS DSPTD CB DSNT S-W MOV SE P0000 T02390217 =
2014-08-21 17:56 METAR KMDT 212156Z 04005KT 9SM -TSRA SCT045CB BKN080 BKN120 OVC160 24/22 A2998 =
2014-08-21 16:56 METAR KMDT 212056Z 00000KT 9SM -TSRA SCT055CB SCT120 BKN160 OVC220 26/22 A2997
                 RMK AO2 RAB44 TSB51 SLP149 FRQ LTGICCCCG OHD-SW-W TS OHD-SW-W MOV SE TCU DSNT SE
                 P0000 60000 T02560222 55000 =
2014-08-21 16:53 METAR KMDT 212053Z 00000KT 9SM -TSRA SCT055CB SCT120 BKN160 OVC220 26/23 A2997
                 RMK AO2 RAB44 TSB51 FRQ LTGICCCCG OHD-SW-W TS OHD-SW-W MOV SE TCU DSNT SE P0000
                 =
2014-08-21 15:56 METAR KMDT 211956Z 00000KT 10SM SCT040CB BKN180 OVC220 27/23 A2997 =
2014-08-21 14:56 METAR KMDT 211856Z COR 12003KT 10SM SCT045CB BKN180 BKN250 29/21 A2998 RMK AO2
                 SLP148 CBMAM OHD-N MOV SE TCU DSNT ALQDS T02890211 =
2014-08-21 13:56 METAR KMDT 211756Z 16003KT 10SM SCT045 BKN250 29/21 A3000 RMK AO2 SLP157
                 T02940211 10294 20211 58013 =
2014-08-21 12:56 METAR KMDT 211656Z 00000KT 10SM SCT045 SCT150 28/22 A3002 =
2014-08-21 11:56 METAR KMDT 211556Z 00000KT 10SM CLR 27/21 A3003 RMK AO2 SLP167 T02720211 =
2014-08-21 10:56 METAR KMDT 211456Z 00000KT 10SM SCT045 26/20 A3004 =
2014-08-21 09:56 METAR KMDT 211356Z 00000KT 10SM SCT070 24/19 A3004 RMK AO2 SLP170 T02440194 =
2014-08-21 08:56 METAR KMDT 211256Z 14003KT 10SM SCT070 23/18 A3005 =
2014-08-21 07:56 METAR KMDT 211156Z 11003KT 6SM BR SCT006 BKN070 21/19 A3005 =
2014-08-21 07:41 METAR KMDT 211141Z 09003KT 6SM BR BKN006 BKN070 21/19 A3004 =
2014-08-21 06:56 METAR KMDT 211056Z 00000KT 6SM BR FEW006 FEW055 BKN075 21/18 A3004 RMK AO2
                 SLP170 T02060183 =
2014-08-21 05:56 METAR KMDT 210956Z 07003KT 6SM BR FEW006 SCT090 BKN250 20/18 A3001 RMK AO2
                 SLP160 T02000183 =
2014-08-21 05:06 METAR KMDT 210906Z 13005KT 6SM BR FEW006 BKN090 BKN250 20/19 A2999 RMK AO2
                 T02000189 =
2014-08-21 04:56 METAR KMDT 210856Z 13005KT 7SM FEW040 SCT090 SCT250 21/19 A2998 =
2014-08-21 03:56 METAR KMDT 210756Z 16004KT 9SM SCT040 SCT250 20/18 A3000 =
2014-08-21 02:56 METAR KMDT 210656Z 00000KT 10SM FEW050 FEW250 21/19 A3000 RMK AO2 SLP156
                 T02110189 =
2014-08-21 01:56 METAR KMDT 210556Z 00000KT 10SM FEW045 FEW250 22/19 A3000 =

Support USWX by starting your Amazon purchase here.